sensor_id;sensor_type;location;lat;lon;timestamp;P1;durP1;ratioP1;P2;durP2;ratioP2
21727;SDS011;11026;50.560;17.852;2023-07-24T00:02:16;5.68;;;4.10;;
21727;SDS011;11026;50.560;17.852;2023-07-24T00:04:43;8.13;;;4.60;;
21727;SDS011;11026;50.560;17.852;2023-07-24T00:07:11;5.68;;;4.20;;
21727;SDS011;11026;50.560;17.852;2023-07-24T00:09:40;6.25;;;4.20;;
21727;SDS011;11026;50.560;17.852;2023-07-24T00:12:08;7.32;;;4.80;;
21727;SDS011;11026;50.560;17.852;2023-07-24T00:14:41;5.47;;;4.63;;
21727;SDS011;11026;50.560;17.852;2023-07-24T00:17:09;7.28;;;4.50;;
21727;SDS011;11026;50.560;17.852;2023-07-24T00:19:36;5.78;;;4.63;;
21727;SDS011;11026;50.560;17.852;2023-07-24T00:22:04;8.45;;;4.63;;
21727;SDS011;11026;50.560;17.852;2023-07-24T00:24:31;7.20;;;4.50;;
21727;SDS011;11026;50.560;17.852;2023-07-24T00:26:59;6.28;;;4.38;;
21727;SDS011;11026;50.560;17.852;2023-07-24T00:29:26;8.65;;;4.60;;
21727;SDS011;11026;50.560;17.852;2023-07-24T00:31:55;6.90;;;4.63;;
21727;SDS011;11026;50.560;17.852;2023-07-24T00:34:22;5.93;;;4.18;;
21727;SDS011;11026;50.560;17.852;2023-07-24T00:36:52;8.27;;;4.68;;
21727;SDS011;11026;50.560;17.852;2023-07-24T00:39:20;9.25;;;4.65;;
21727;SDS011;11026;50.560;17.852;2023-07-24T00:41:47;9.23;;;5.00;;
21727;SDS011;11026;50.560;17.852;2023-07-24T00:44:18;7.38;;;4.38;;
21727;SDS011;11026;50.560;17.852;2023-07-24T00:46:47;6.90;;;4.93;;
21727;SDS011;11026;50.560;17.852;2023-07-24T00:49:16;8.02;;;4.82;;
21727;SDS011;11026;50.560;17.852;2023-07-24T00:51:45;6.97;;;4.72;;
21727;SDS011;11026;50.560;17.852;2023-07-24T00:56:44;5.85;;;5.00;;
21727;SDS011;11026;50.560;17.852;2023-07-24T00:59:12;8.57;;;4.60;;
21727;SDS011;11026;50.560;17.852;2023-07-24T01:01:41;7.70;;;4.45;;
21727;SDS011;11026;50.560;17.852;2023-07-24T01:04:09;7.65;;;4.93;;
21727;SDS011;11026;50.560;17.852;2023-07-24T01:06:37;7.90;;;4.75;;
21727;SDS011;11026;50.560;17.852;2023-07-24T01:09:10;8.40;;;5.63;;
21727;SDS011;11026;50.560;17.852;2023-07-24T01:11:45;5.38;;;4.38;;
21727;SDS011;11026;50.560;17.852;2023-07-24T01:16:54;7.97;;;5.30;;
21727;SDS011;11026;50.560;17.852;2023-07-24T01:19:36;5.80;;;5.00;;
21727;SDS011;11026;50.560;17.852;2023-07-24T01:22:09;6.68;;;4.85;;
21727;SDS011;11026;50.560;17.852;2023-07-24T01:25:17;8.80;;;5.10;;
21727;SDS011;11026;50.560;17.852;2023-07-24T01:27:46;8.25;;;5.30;;
21727;SDS011;11026;50.560;17.852;2023-07-24T01:30:17;14.18;;;5.07;;
21727;SDS011;11026;50.560;17.852;2023-07-24T01:32:51;7.93;;;4.90;;
21727;SDS011;11026;50.560;17.852;2023-07-24T01:35:19;9.13;;;5.15;;
21727;SDS011;11026;50.560;17.852;2023-07-24T01:37:47;9.15;;;5.43;;
21727;SDS011;11026;50.560;17.852;2023-07-24T01:40:17;7.80;;;4.60;;
21727;SDS011;11026;50.560;17.852;2023-07-24T01:42:47;8.90;;;5.30;;
21727;SDS011;11026;50.560;17.852;2023-07-24T01:45:18;7.55;;;4.95;;
21727;SDS011;11026;50.560;17.852;2023-07-24T01:47:46;8.48;;;5.40;;
21727;SDS011;11026;50.560;17.852;2023-07-24T01:50:13;8.57;;;5.45;;
21727;SDS011;11026;50.560;17.852;2023-07-24T01:52:41;10.25;;;5.40;;
21727;SDS011;11026;50.560;17.852;2023-07-24T01:55:08;7.20;;;5.15;;
21727;SDS011;11026;50.560;17.852;2023-07-24T01:57:37;8.55;;;5.70;;
21727;SDS011;11026;50.560;17.852;2023-07-24T02:00:04;7.82;;;5.03;;
21727;SDS011;11026;50.560;17.852;2023-07-24T02:02:33;6.65;;;5.50;;
21727;SDS011;11026;50.560;17.852;2023-07-24T02:07:33;9.63;;;5.50;;
21727;SDS011;11026;50.560;17.852;2023-07-24T02:10:01;8.02;;;5.40;;
21727;SDS011;11026;50.560;17.852;2023-07-24T02:12:29;9.55;;;5.55;;
21727;SDS011;11026;50.560;17.852;2023-07-24T02:14:56;9.02;;;5.38;;
21727;SDS011;11026;50.560;17.852;2023-07-24T02:17:25;9.27;;;5.03;;
21727;SDS011;11026;50.560;17.852;2023-07-24T02:19:52;9.60;;;4.90;;
21727;SDS011;11026;50.560;17.852;2023-07-24T02:22:20;5.78;;;5.00;;
21727;SDS011;11026;50.560;17.852;2023-07-24T02:24:47;9.00;;;5.72;;
21727;SDS011;11026;50.560;17.852;2023-07-24T02:27:24;9.80;;;4.90;;
21727;SDS011;11026;50.560;17.852;2023-07-24T02:29:57;11.43;;;5.50;;
21727;SDS011;11026;50.560;17.852;2023-07-24T02:32:25;7.90;;;5.65;;
21727;SDS011;11026;50.560;17.852;2023-07-24T02:34:52;8.48;;;5.22;;
21727;SDS011;11026;50.560;17.852;2023-07-24T02:37:19;11.05;;;5.30;;
21727;SDS011;11026;50.560;17.852;2023-07-24T02:39:49;7.15;;;4.97;;
21727;SDS011;11026;50.560;17.852;2023-07-24T02:42:22;8.13;;;5.25;;
21727;SDS011;11026;50.560;17.852;2023-07-24T02:44:50;12.23;;;5.05;;
21727;SDS011;11026;50.560;17.852;2023-07-24T02:47:19;9.10;;;4.90;;
21727;SDS011;11026;50.560;17.852;2023-07-24T02:49:49;11.18;;;5.10;;
21727;SDS011;11026;50.560;17.852;2023-07-24T02:52:16;6.25;;;4.95;;
21727;SDS011;11026;50.560;17.852;2023-07-24T02:54:43;10.30;;;5.75;;
21727;SDS011;11026;50.560;17.852;2023-07-24T02:57:11;7.32;;;4.68;;
21727;SDS011;11026;50.560;17.852;2023-07-24T02:59:39;7.97;;;5.15;;
21727;SDS011;11026;50.560;17.852;2023-07-24T03:02:06;9.75;;;5.25;;
21727;SDS011;11026;50.560;17.852;2023-07-24T03:04:34;8.70;;;5.38;;
21727;SDS011;11026;50.560;17.852;2023-07-24T03:07:01;10.70;;;5.10;;
21727;SDS011;11026;50.560;17.852;2023-07-24T03:09:28;9.13;;;5.13;;
21727;SDS011;11026;50.560;17.852;2023-07-24T03:11:56;6.85;;;4.97;;
21727;SDS011;11026;50.560;17.852;2023-07-24T03:14:31;6.57;;;4.75;;
21727;SDS011;11026;50.560;17.852;2023-07-24T03:16:59;6.95;;;4.97;;
21727;SDS011;11026;50.560;17.852;2023-07-24T03:22:11;6.82;;;4.75;;
21727;SDS011;11026;50.560;17.852;2023-07-24T03:24:42;6.95;;;4.68;;
21727;SDS011;11026;50.560;17.852;2023-07-24T03:27:12;8.70;;;4.93;;
21727;SDS011;11026;50.560;17.852;2023-07-24T03:29:41;8.90;;;5.25;;
21727;SDS011;11026;50.560;17.852;2023-07-24T03:32:10;6.53;;;4.82;;
21727;SDS011;11026;50.560;17.852;2023-07-24T03:34:37;6.25;;;5.03;;
21727;SDS011;11026;50.560;17.852;2023-07-24T03:37:05;6.80;;;4.50;;
21727;SDS011;11026;50.560;17.852;2023-07-24T03:39:32;10.90;;;5.13;;
21727;SDS011;11026;50.560;17.852;2023-07-24T03:42:00;10.38;;;5.60;;
21727;SDS011;11026;50.560;17.852;2023-07-24T03:44:28;8.73;;;5.20;;
21727;SDS011;11026;50.560;17.852;2023-07-24T03:46:56;8.88;;;5.40;;
21727;SDS011;11026;50.560;17.852;2023-07-24T03:49:36;8.93;;;5.68;;
21727;SDS011;11026;50.560;17.852;2023-07-24T03:52:03;9.85;;;5.88;;
21727;SDS011;11026;50.560;17.852;2023-07-24T03:54:32;9.00;;;5.55;;
21727;SDS011;11026;50.560;17.852;2023-07-24T03:57:00;8.43;;;5.45;;
21727;SDS011;11026;50.560;17.852;2023-07-24T03:59:28;7.93;;;5.40;;
21727;SDS011;11026;50.560;17.852;2023-07-24T04:02:02;9.25;;;5.55;;
21727;SDS011;11026;50.560;17.852;2023-07-24T04:06:58;6.97;;;5.07;;
21727;SDS011;11026;50.560;17.852;2023-07-24T04:09:25;10.60;;;5.50;;
21727;SDS011;11026;50.560;17.852;2023-07-24T04:11:54;9.45;;;5.28;;
21727;SDS011;11026;50.560;17.852;2023-07-24T04:14:21;7.75;;;5.35;;
21727;SDS011;11026;50.560;17.852;2023-07-24T04:16:49;6.35;;;5.10;;
21727;SDS011;11026;50.560;17.852;2023-07-24T04:19:16;10.77;;;5.05;;
21727;SDS011;11026;50.560;17.852;2023-07-24T04:21:45;7.82;;;5.03;;
21727;SDS011;11026;50.560;17.852;2023-07-24T04:24:13;10.30;;;5.45;;
21727;SDS011;11026;50.560;17.852;2023-07-24T04:26:47;8.07;;;5.00;;
21727;SDS011;11026;50.560;17.852;2023-07-24T04:29:14;10.65;;;5.35;;
21727;SDS011;11026;50.560;17.852;2023-07-24T04:31:41;6.70;;;4.75;;
21727;SDS011;11026;50.560;17.852;2023-07-24T04:34:09;13.10;;;8.65;;
21727;SDS011;11026;50.560;17.852;2023-07-24T04:36:36;8.35;;;5.45;;
21727;SDS011;11026;50.560;17.852;2023-07-24T04:39:03;7.20;;;4.63;;
21727;SDS011;11026;50.560;17.852;2023-07-24T04:41:31;6.85;;;4.82;;
21727;SDS011;11026;50.560;17.852;2023-07-24T04:43:58;7.55;;;4.70;;
21727;SDS011;11026;50.560;17.852;2023-07-24T04:46:27;6.55;;;4.43;;
21727;SDS011;11026;50.560;17.852;2023-07-24T04:48:55;9.70;;;4.80;;
21727;SDS011;11026;50.560;17.852;2023-07-24T04:51:22;6.53;;;4.47;;
21727;SDS011;11026;50.560;17.852;2023-07-24T04:53:50;7.57;;;4.60;;
21727;SDS011;11026;50.560;17.852;2023-07-24T04:56:18;6.40;;;4.45;;
21727;SDS011;11026;50.560;17.852;2023-07-24T04:58:46;9.13;;;4.50;;
21727;SDS011;11026;50.560;17.852;2023-07-24T05:01:13;6.07;;;4.82;;
21727;SDS011;11026;50.560;17.852;2023-07-24T05:03:40;10.25;;;4.50;;
21727;SDS011;11026;50.560;17.852;2023-07-24T05:06:08;5.70;;;4.35;;
21727;SDS011;11026;50.560;17.852;2023-07-24T05:08:36;8.27;;;4.43;;
21727;SDS011;11026;50.560;17.852;2023-07-24T05:11:04;6.35;;;4.60;;
21727;SDS011;11026;50.560;17.852;2023-07-24T05:13:31;6.82;;;4.78;;
21727;SDS011;11026;50.560;17.852;2023-07-24T05:16:00;9.80;;;4.80;;
21727;SDS011;11026;50.560;17.852;2023-07-24T05:18:27;9.15;;;4.75;;
21727;SDS011;11026;50.560;17.852;2023-07-24T05:20:55;7.75;;;4.50;;
21727;SDS011;11026;50.560;17.852;2023-07-24T05:23:23;6.93;;;4.65;;
21727;SDS011;11026;50.560;17.852;2023-07-24T05:26:02;8.52;;;4.97;;
21727;SDS011;11026;50.560;17.852;2023-07-24T05:28:44;6.80;;;4.78;;
21727;SDS011;11026;50.560;17.852;2023-07-24T05:31:12;6.15;;;4.68;;
21727;SDS011;11026;50.560;17.852;2023-07-24T05:33:40;6.63;;;4.70;;
21727;SDS011;11026;50.560;17.852;2023-07-24T05:36:07;5.97;;;4.57;;
21727;SDS011;11026;50.560;17.852;2023-07-24T05:38:41;6.43;;;4.65;;
21727;SDS011;11026;50.560;17.852;2023-07-24T05:41:15;9.95;;;4.70;;
21727;SDS011;11026;50.560;17.852;2023-07-24T05:43:44;6.93;;;4.43;;
21727;SDS011;11026;50.560;17.852;2023-07-24T05:46:11;5.72;;;4.40;;
21727;SDS011;11026;50.560;17.852;2023-07-24T05:48:39;7.22;;;4.32;;
21727;SDS011;11026;50.560;17.852;2023-07-24T05:51:06;8.27;;;4.80;;
21727;SDS011;11026;50.560;17.852;2023-07-24T05:53:35;6.80;;;4.50;;
21727;SDS011;11026;50.560;17.852;2023-07-24T05:56:03;5.72;;;4.63;;
21727;SDS011;11026;50.560;17.852;2023-07-24T05:58:31;7.35;;;4.57;;
21727;SDS011;11026;50.560;17.852;2023-07-24T06:00:58;10.55;;;5.18;;
21727;SDS011;11026;50.560;17.852;2023-07-24T06:03:26;6.97;;;4.75;;
21727;SDS011;11026;50.560;17.852;2023-07-24T06:05:54;7.50;;;4.78;;
21727;SDS011;11026;50.560;17.852;2023-07-24T06:08:22;7.57;;;4.90;;
21727;SDS011;11026;50.560;17.852;2023-07-24T06:10:51;6.80;;;4.43;;
21727;SDS011;11026;50.560;17.852;2023-07-24T06:13:19;5.38;;;4.68;;
21727;SDS011;11026;50.560;17.852;2023-07-24T06:15:47;7.45;;;4.70;;
21727;SDS011;11026;50.560;17.852;2023-07-24T06:18:18;6.93;;;4.75;;
21727;SDS011;11026;50.560;17.852;2023-07-24T06:20:45;8.35;;;4.95;;
21727;SDS011;11026;50.560;17.852;2023-07-24T06:23:13;7.70;;;5.03;;
21727;SDS011;11026;50.560;17.852;2023-07-24T06:25:41;6.75;;;4.65;;
21727;SDS011;11026;50.560;17.852;2023-07-24T06:28:09;6.93;;;4.90;;
21727;SDS011;11026;50.560;17.852;2023-07-24T06:30:37;6.03;;;4.97;;
21727;SDS011;11026;50.560;17.852;2023-07-24T06:33:06;7.68;;;4.65;;
21727;SDS011;11026;50.560;17.852;2023-07-24T06:35:35;6.57;;;4.75;;
21727;SDS011;11026;50.560;17.852;2023-07-24T06:38:08;7.90;;;4.45;;
21727;SDS011;11026;50.560;17.852;2023-07-24T06:40:36;6.53;;;5.00;;
21727;SDS011;11026;50.560;17.852;2023-07-24T06:43:04;7.88;;;5.00;;
21727;SDS011;11026;50.560;17.852;2023-07-24T06:45:32;5.60;;;4.50;;
21727;SDS011;11026;50.560;17.852;2023-07-24T06:48:00;7.80;;;5.25;;
21727;SDS011;11026;50.560;17.852;2023-07-24T06:50:30;6.22;;;4.90;;
21727;SDS011;11026;50.560;17.852;2023-07-24T06:52:57;7.35;;;4.97;;
21727;SDS011;11026;50.560;17.852;2023-07-24T06:55:31;8.50;;;5.03;;
21727;SDS011;11026;50.560;17.852;2023-07-24T06:57:58;6.50;;;4.82;;
21727;SDS011;11026;50.560;17.852;2023-07-24T07:00:26;6.93;;;4.97;;
21727;SDS011;11026;50.560;17.852;2023-07-24T07:02:53;10.32;;;4.72;;
21727;SDS011;11026;50.560;17.852;2023-07-24T07:05:21;7.25;;;4.95;;
21727;SDS011;11026;50.560;17.852;2023-07-24T07:07:49;10.50;;;4.78;;
21727;SDS011;11026;50.560;17.852;2023-07-24T07:10:17;7.28;;;4.80;;
21727;SDS011;11026;50.560;17.852;2023-07-24T07:12:44;7.55;;;5.38;;
21727;SDS011;11026;50.560;17.852;2023-07-24T07:15:12;7.68;;;4.90;;
21727;SDS011;11026;50.560;17.852;2023-07-24T07:17:40;6.00;;;5.13;;
21727;SDS011;11026;50.560;17.852;2023-07-24T07:20:07;6.85;;;5.05;;
21727;SDS011;11026;50.560;17.852;2023-07-24T07:22:35;7.70;;;5.28;;
21727;SDS011;11026;50.560;17.852;2023-07-24T07:25:02;6.35;;;4.95;;
21727;SDS011;11026;50.560;17.852;2023-07-24T07:27:30;6.63;;;5.38;;
21727;SDS011;11026;50.560;17.852;2023-07-24T07:29:57;7.15;;;5.25;;
21727;SDS011;11026;50.560;17.852;2023-07-24T07:32:25;7.15;;;5.38;;
21727;SDS011;11026;50.560;17.852;2023-07-24T07:34:54;6.32;;;5.18;;
21727;SDS011;11026;50.560;17.852;2023-07-24T07:37:21;5.80;;;5.07;;
21727;SDS011;11026;50.560;17.852;2023-07-24T07:39:49;6.60;;;5.47;;
21727;SDS011;11026;50.560;17.852;2023-07-24T07:42:16;7.57;;;4.90;;
21727;SDS011;11026;50.560;17.852;2023-07-24T07:44:45;7.80;;;5.55;;
21727;SDS011;11026;50.560;17.852;2023-07-24T07:47:13;10.70;;;5.00;;
21727;SDS011;11026;50.560;17.852;2023-07-24T07:49:41;10.15;;;5.47;;
21727;SDS011;11026;50.560;17.852;2023-07-24T07:52:09;8.05;;;5.15;;
21727;SDS011;11026;50.560;17.852;2023-07-24T07:54:36;7.95;;;5.40;;
21727;SDS011;11026;50.560;17.852;2023-07-24T07:57:04;7.93;;;5.60;;
21727;SDS011;11026;50.560;17.852;2023-07-24T07:59:33;7.38;;;5.57;;
21727;SDS011;11026;50.560;17.852;2023-07-24T08:02:01;7.78;;;5.60;;
21727;SDS011;11026;50.560;17.852;2023-07-24T08:04:29;9.10;;;5.55;;
21727;SDS011;11026;50.560;17.852;2023-07-24T08:06:57;9.07;;;5.72;;
21727;SDS011;11026;50.560;17.852;2023-07-24T08:09:24;10.05;;;5.97;;
21727;SDS011;11026;50.560;17.852;2023-07-24T08:11:57;8.82;;;5.68;;
21727;SDS011;11026;50.560;17.852;2023-07-24T08:14:24;8.65;;;6.30;;
21727;SDS011;11026;50.560;17.852;2023-07-24T08:16:52;7.40;;;6.05;;
21727;SDS011;11026;50.560;17.852;2023-07-24T08:19:21;8.85;;;6.00;;
21727;SDS011;11026;50.560;17.852;2023-07-24T08:21:48;9.90;;;6.10;;
21727;SDS011;11026;50.560;17.852;2023-07-24T08:24:17;8.32;;;6.28;;
21727;SDS011;11026;50.560;17.852;2023-07-24T08:26:44;11.68;;;6.45;;
21727;SDS011;11026;50.560;17.852;2023-07-24T08:29:12;6.22;;;5.43;;
21727;SDS011;11026;50.560;17.852;2023-07-24T08:31:39;7.43;;;5.55;;
21727;SDS011;11026;50.560;17.852;2023-07-24T08:34:06;8.77;;;6.38;;
21727;SDS011;11026;50.560;17.852;2023-07-24T08:36:33;7.45;;;6.13;;
21727;SDS011;11026;50.560;17.852;2023-07-24T08:39:03;7.47;;;5.88;;
21727;SDS011;11026;50.560;17.852;2023-07-24T08:41:37;9.88;;;6.28;;
21727;SDS011;11026;50.560;17.852;2023-07-24T08:44:09;9.68;;;6.28;;
21727;SDS011;11026;50.560;17.852;2023-07-24T08:46:42;9.48;;;6.00;;
21727;SDS011;11026;50.560;17.852;2023-07-24T08:49:13;10.00;;;6.35;;
21727;SDS011;11026;50.560;17.852;2023-07-24T08:51:41;8.32;;;5.97;;
21727;SDS011;11026;50.560;17.852;2023-07-24T08:54:11;8.98;;;6.63;;
21727;SDS011;11026;50.560;17.852;2023-07-24T08:56:39;9.05;;;6.55;;
21727;SDS011;11026;50.560;17.852;2023-07-24T08:59:07;9.07;;;6.75;;
21727;SDS011;11026;50.560;17.852;2023-07-24T09:01:34;12.30;;;6.68;;
21727;SDS011;11026;50.560;17.852;2023-07-24T09:04:03;8.48;;;5.85;;
21727;SDS011;11026;50.560;17.852;2023-07-24T09:06:30;10.63;;;6.63;;
21727;SDS011;11026;50.560;17.852;2023-07-24T09:08:59;6.90;;;5.95;;
21727;SDS011;11026;50.560;17.852;2023-07-24T09:11:26;8.20;;;6.45;;
21727;SDS011;11026;50.560;17.852;2023-07-24T09:13:54;8.45;;;6.13;;
21727;SDS011;11026;50.560;17.852;2023-07-24T09:16:25;10.18;;;6.53;;
21727;SDS011;11026;50.560;17.852;2023-07-24T09:18:53;10.80;;;6.68;;
21727;SDS011;11026;50.560;17.852;2023-07-24T09:21:30;10.10;;;6.65;;
21727;SDS011;11026;50.560;17.852;2023-07-24T09:24:19;10.40;;;6.88;;
21727;SDS011;11026;50.560;17.852;2023-07-24T09:26:53;9.82;;;6.88;;
21727;SDS011;11026;50.560;17.852;2023-07-24T09:29:34;7.88;;;6.78;;
21727;SDS011;11026;50.560;17.852;2023-07-24T09:32:02;9.57;;;7.25;;
21727;SDS011;11026;50.560;17.852;2023-07-24T09:34:31;10.55;;;6.80;;
21727;SDS011;11026;50.560;17.852;2023-07-24T09:36:58;8.93;;;6.95;;
21727;SDS011;11026;50.560;17.852;2023-07-24T09:39:26;9.30;;;7.43;;
21727;SDS011;11026;50.560;17.852;2023-07-24T09:42:02;9.43;;;7.13;;
21727;SDS011;11026;50.560;17.852;2023-07-24T09:44:34;11.23;;;7.25;;
21727;SDS011;11026;50.560;17.852;2023-07-24T09:47:02;9.35;;;6.90;;
21727;SDS011;11026;50.560;17.852;2023-07-24T09:49:50;11.73;;;7.25;;
21727;SDS011;11026;50.560;17.852;2023-07-24T09:52:19;9.43;;;7.28;;
21727;SDS011;11026;50.560;17.852;2023-07-24T09:57:25;9.00;;;7.00;;
21727;SDS011;11026;50.560;17.852;2023-07-24T09:59:56;10.18;;;7.30;;
21727;SDS011;11026;50.560;17.852;2023-07-24T10:02:23;9.75;;;7.50;;
21727;SDS011;11026;50.560;17.852;2023-07-24T10:04:53;9.77;;;7.07;;
21727;SDS011;11026;50.560;17.852;2023-07-24T10:07:23;9.50;;;7.25;;
21727;SDS011;11026;50.560;17.852;2023-07-24T10:09:52;10.27;;;7.18;;
21727;SDS011;11026;50.560;17.852;2023-07-24T10:12:20;10.05;;;7.40;;
21727;SDS011;11026;50.560;17.852;2023-07-24T10:14:48;10.48;;;7.57;;
21727;SDS011;11026;50.560;17.852;2023-07-24T10:17:24;10.18;;;7.63;;
21727;SDS011;11026;50.560;17.852;2023-07-24T10:20:12;9.43;;;6.93;;
21727;SDS011;11026;50.560;17.852;2023-07-24T10:22:43;10.18;;;7.35;;
21727;SDS011;11026;50.560;17.852;2023-07-24T10:25:12;10.82;;;8.10;;
21727;SDS011;11026;50.560;17.852;2023-07-24T10:27:44;9.05;;;7.57;;
21727;SDS011;11026;50.560;17.852;2023-07-24T10:33:10;10.20;;;7.63;;
21727;SDS011;11026;50.560;17.852;2023-07-24T10:35:41;12.43;;;7.55;;
21727;SDS011;11026;50.560;17.852;2023-07-24T10:38:12;8.98;;;7.57;;
21727;SDS011;11026;50.560;17.852;2023-07-24T10:40:41;9.52;;;7.55;;
21727;SDS011;11026;50.560;17.852;2023-07-24T10:43:12;10.85;;;8.15;;
21727;SDS011;11026;50.560;17.852;2023-07-24T10:48:24;9.05;;;7.43;;
21727;SDS011;11026;50.560;17.852;2023-07-24T10:50:53;11.95;;;7.40;;
21727;SDS011;11026;50.560;17.852;2023-07-24T10:53:21;10.60;;;7.70;;
21727;SDS011;11026;50.560;17.852;2023-07-24T10:55:50;11.27;;;8.10;;
21727;SDS011;11026;50.560;17.852;2023-07-24T10:58:19;11.07;;;7.88;;
21727;SDS011;11026;50.560;17.852;2023-07-24T11:00:46;10.45;;;7.32;;
21727;SDS011;11026;50.560;17.852;2023-07-24T11:03:14;10.73;;;7.90;;
21727;SDS011;11026;50.560;17.852;2023-07-24T11:05:42;12.45;;;7.65;;
21727;SDS011;11026;50.560;17.852;2023-07-24T11:08:17;9.52;;;7.45;;
21727;SDS011;11026;50.560;17.852;2023-07-24T11:10:52;11.13;;;7.57;;
21727;SDS011;11026;50.560;17.852;2023-07-24T11:13:22;10.57;;;7.60;;
21727;SDS011;11026;50.560;17.852;2023-07-24T11:15:53;10.93;;;7.70;;
21727;SDS011;11026;50.560;17.852;2023-07-24T11:18:22;9.35;;;7.97;;
21727;SDS011;11026;50.560;17.852;2023-07-24T11:20:57;9.27;;;7.65;;
21727;SDS011;11026;50.560;17.852;2023-07-24T11:23:25;10.63;;;7.45;;
21727;SDS011;11026;50.560;17.852;2023-07-24T11:25:53;9.57;;;7.85;;
21727;SDS011;11026;50.560;17.852;2023-07-24T11:28:21;10.65;;;7.80;;
21727;SDS011;11026;50.560;17.852;2023-07-24T11:30:55;10.63;;;7.65;;
21727;SDS011;11026;50.560;17.852;2023-07-24T11:33:29;12.68;;;7.60;;
21727;SDS011;11026;50.560;17.852;2023-07-24T11:35:57;10.05;;;8.02;;
21727;SDS011;11026;50.560;17.852;2023-07-24T11:38:24;10.13;;;8.10;;
21727;SDS011;11026;50.560;17.852;2023-07-24T11:40:53;12.75;;;8.60;;
21727;SDS011;11026;50.560;17.852;2023-07-24T11:43:25;10.15;;;7.78;;
21727;SDS011;11026;50.560;17.852;2023-07-24T11:45:53;9.70;;;8.40;;
21727;SDS011;11026;50.560;17.852;2023-07-24T11:48:21;11.27;;;7.93;;
21727;SDS011;11026;50.560;17.852;2023-07-24T11:50:58;10.23;;;8.32;;
21727;SDS011;11026;50.560;17.852;2023-07-24T11:53:27;11.63;;;8.25;;
21727;SDS011;11026;50.560;17.852;2023-07-24T11:55:57;12.85;;;8.05;;
21727;SDS011;11026;50.560;17.852;2023-07-24T11:58:25;12.50;;;8.35;;
21727;SDS011;11026;50.560;17.852;2023-07-24T12:00:53;12.73;;;8.63;;
21727;SDS011;11026;50.560;17.852;2023-07-24T12:03:22;14.27;;;8.60;;
21727;SDS011;11026;50.560;17.852;2023-07-24T12:05:54;13.38;;;9.93;;
21727;SDS011;11026;50.560;17.852;2023-07-24T12:08:32;10.35;;;9.00;;
21727;SDS011;11026;50.560;17.852;2023-07-24T12:11:01;10.95;;;8.32;;
21727;SDS011;11026;50.560;17.852;2023-07-24T12:13:30;11.40;;;8.65;;
21727;SDS011;11026;50.560;17.852;2023-07-24T12:15:59;12.80;;;8.70;;
21727;SDS011;11026;50.560;17.852;2023-07-24T12:18:26;10.15;;;8.30;;
21727;SDS011;11026;50.560;17.852;2023-07-24T12:20:53;11.82;;;9.20;;
21727;SDS011;11026;50.560;17.852;2023-07-24T12:23:21;11.13;;;9.00;;
21727;SDS011;11026;50.560;17.852;2023-07-24T12:25:48;13.02;;;9.18;;
21727;SDS011;11026;50.560;17.852;2023-07-24T12:28:16;10.82;;;8.38;;
21727;SDS011;11026;50.560;17.852;2023-07-24T12:30:43;12.70;;;9.07;;
21727;SDS011;11026;50.560;17.852;2023-07-24T12:33:11;10.90;;;8.25;;
21727;SDS011;11026;50.560;17.852;2023-07-24T12:35:39;12.35;;;9.38;;
21727;SDS011;11026;50.560;17.852;2023-07-24T12:38:06;10.48;;;8.82;;
21727;SDS011;11026;50.560;17.852;2023-07-24T12:40:34;10.73;;;8.80;;
21727;SDS011;11026;50.560;17.852;2023-07-24T12:43:01;13.32;;;8.90;;
21727;SDS011;11026;50.560;17.852;2023-07-24T12:45:29;11.20;;;8.68;;
21727;SDS011;11026;50.560;17.852;2023-07-24T12:47:56;11.50;;;8.93;;
21727;SDS011;11026;50.560;17.852;2023-07-24T12:50:23;10.52;;;8.60;;
21727;SDS011;11026;50.560;17.852;2023-07-24T12:52:51;12.90;;;8.00;;
21727;SDS011;11026;50.560;17.852;2023-07-24T12:55:19;10.63;;;8.45;;
21727;SDS011;11026;50.560;17.852;2023-07-24T12:57:46;13.93;;;8.50;;
21727;SDS011;11026;50.560;17.852;2023-07-24T13:00:16;13.02;;;9.73;;
21727;SDS011;11026;50.560;17.852;2023-07-24T13:02:44;10.95;;;8.73;;
21727;SDS011;11026;50.560;17.852;2023-07-24T13:05:12;10.80;;;8.80;;
21727;SDS011;11026;50.560;17.852;2023-07-24T13:07:40;14.25;;;9.27;;
21727;SDS011;11026;50.560;17.852;2023-07-24T13:10:08;11.40;;;8.90;;
21727;SDS011;11026;50.560;17.852;2023-07-24T13:12:43;11.50;;;8.88;;
21727;SDS011;11026;50.560;17.852;2023-07-24T13:15:11;12.98;;;9.45;;
21727;SDS011;11026;50.560;17.852;2023-07-24T13:17:44;11.93;;;9.10;;
21727;SDS011;11026;50.560;17.852;2023-07-24T13:20:13;9.25;;;8.25;;
21727;SDS011;11026;50.560;17.852;2023-07-24T13:22:40;12.18;;;8.88;;
21727;SDS011;11026;50.560;17.852;2023-07-24T13:25:09;12.20;;;8.63;;
21727;SDS011;11026;50.560;17.852;2023-07-24T13:27:38;12.45;;;9.30;;
21727;SDS011;11026;50.560;17.852;2023-07-24T13:30:05;11.20;;;9.13;;
21727;SDS011;11026;50.560;17.852;2023-07-24T13:32:33;10.73;;;8.65;;
21727;SDS011;11026;50.560;17.852;2023-07-24T13:35:01;12.25;;;8.82;;
21727;SDS011;11026;50.560;17.852;2023-07-24T13:37:28;12.10;;;8.75;;
21727;SDS011;11026;50.560;17.852;2023-07-24T13:39:56;12.88;;;8.55;;
21727;SDS011;11026;50.560;17.852;2023-07-24T13:42:32;12.52;;;9.20;;
21727;SDS011;11026;50.560;17.852;2023-07-24T13:44:59;10.73;;;8.13;;
21727;SDS011;11026;50.560;17.852;2023-07-24T13:47:27;11.50;;;8.95;;
21727;SDS011;11026;50.560;17.852;2023-07-24T13:49:54;12.15;;;8.27;;
21727;SDS011;11026;50.560;17.852;2023-07-24T13:52:24;13.05;;;8.55;;
21727;SDS011;11026;50.560;17.852;2023-07-24T13:54:51;9.77;;;8.27;;
21727;SDS011;11026;50.560;17.852;2023-07-24T13:57:19;11.70;;;9.02;;
21727;SDS011;11026;50.560;17.852;2023-07-24T13:59:48;18.17;;;9.10;;
21727;SDS011;11026;50.560;17.852;2023-07-24T14:02:17;17.90;;;9.52;;
21727;SDS011;11026;50.560;17.852;2023-07-24T14:04:45;13.85;;;8.65;;
21727;SDS011;11026;50.560;17.852;2023-07-24T14:07:15;18.85;;;10.63;;
21727;SDS011;11026;50.560;17.852;2023-07-24T14:09:43;15.90;;;9.07;;
21727;SDS011;11026;50.560;17.852;2023-07-24T14:12:11;15.60;;;9.50;;
21727;SDS011;11026;50.560;17.852;2023-07-24T14:14:38;14.27;;;9.48;;
21727;SDS011;11026;50.560;17.852;2023-07-24T14:17:06;16.25;;;9.52;;
21727;SDS011;11026;50.560;17.852;2023-07-24T14:19:33;13.70;;;8.82;;
21727;SDS011;11026;50.560;17.852;2023-07-24T14:22:01;16.63;;;9.38;;
21727;SDS011;11026;50.560;17.852;2023-07-24T14:24:28;17.13;;;9.40;;
21727;SDS011;11026;50.560;17.852;2023-07-24T14:26:56;13.52;;;8.65;;
21727;SDS011;11026;50.560;17.852;2023-07-24T14:29:24;14.52;;;10.13;;
21727;SDS011;11026;50.560;17.852;2023-07-24T14:31:51;17.55;;;10.10;;
21727;SDS011;11026;50.560;17.852;2023-07-24T14:34:21;14.82;;;9.77;;
21727;SDS011;11026;50.560;17.852;2023-07-24T14:36:48;13.80;;;10.00;;
21727;SDS011;11026;50.560;17.852;2023-07-24T14:39:16;14.43;;;9.57;;
21727;SDS011;11026;50.560;17.852;2023-07-24T14:41:43;13.20;;;9.10;;
21727;SDS011;11026;50.560;17.852;2023-07-24T14:44:11;13.27;;;10.18;;
21727;SDS011;11026;50.560;17.852;2023-07-24T14:46:39;15.73;;;9.73;;
21727;SDS011;11026;50.560;17.852;2023-07-24T14:49:07;13.20;;;9.32;;
21727;SDS011;11026;50.560;17.852;2023-07-24T14:51:35;15.07;;;9.02;;
21727;SDS011;11026;50.560;17.852;2023-07-24T14:54:03;13.32;;;8.82;;
21727;SDS011;11026;50.560;17.852;2023-07-24T14:56:30;11.55;;;8.82;;
21727;SDS011;11026;50.560;17.852;2023-07-24T14:59:18;14.85;;;9.55;;
21727;SDS011;11026;50.560;17.852;2023-07-24T15:01:46;14.00;;;9.52;;